createdAt,value
2023-07-30T00:02:25.121Z,24.40
2023-07-30T00:04:54.622Z,25.10
2023-07-30T00:07:21.326Z,24.30
2023-07-30T00:09:48.029Z,24.30
2023-07-30T00:12:14.761Z,24.30
2023-07-30T00:14:41.447Z,24.20
2023-07-30T00:17:08.125Z,24.30
2023-07-30T00:19:34.952Z,24.20
2023-07-30T00:22:01.611Z,24.30
2023-07-30T00:24:28.495Z,24.20
2023-07-30T00:26:55.369Z,24.10
2023-07-30T00:29:22.129Z,24.10
2023-07-30T00:31:48.881Z,24.10
2023-07-30T00:34:15.615Z,23.40
2023-07-30T00:36:42.325Z,24.10
2023-07-30T00:39:12.129Z,23.90
2023-07-30T00:41:39.165Z,23.90
2023-07-30T00:44:06.317Z,23.90
2023-07-30T00:46:33.101Z,24.00
2023-07-30T00:48:59.791Z,23.90
2023-07-30T00:51:27.662Z,23.90
2023-07-30T00:53:54.415Z,23.90
2023-07-30T00:56:21.242Z,23.80
2023-07-30T00:58:49.627Z,24.60
2023-07-30T01:01:16.747Z,23.80
2023-07-30T01:03:43.720Z,23.70
2023-07-30T01:06:10.528Z,23.70
2023-07-30T01:08:37.313Z,23.90
2023-07-30T01:11:05.972Z,23.70
2023-07-30T01:13:33.990Z,23.60
2023-07-30T01:16:00.959Z,23.70
2023-07-30T01:18:27.674Z,24.90
2023-07-30T01:20:54.702Z,23.60
2023-07-30T01:23:21.406Z,23.60
2023-07-30T01:25:49.506Z,23.70
2023-07-30T01:28:19.249Z,23.50
2023-07-30T01:30:46.724Z,23.50
2023-07-30T01:33:13.583Z,25.10
2023-07-30T01:35:42.915Z,24.70
2023-07-30T01:38:10.161Z,23.90
2023-07-30T01:40:36.939Z,23.60
2023-07-30T01:43:03.714Z,23.50
2023-07-30T01:45:30.468Z,24.00
2023-07-30T01:47:57.194Z,23.90
2023-07-30T01:50:23.969Z,23.90
2023-07-30T01:52:50.740Z,23.40
2023-07-30T01:55:18.110Z,23.30
2023-07-30T01:57:44.804Z,24.30
2023-07-30T02:00:12.037Z,23.30
2023-07-30T02:02:39.127Z,23.30
2023-07-30T02:05:06.136Z,23.30
2023-07-30T02:07:32.828Z,23.20
2023-07-30T02:09:59.584Z,23.30
2023-07-30T02:12:26.323Z,23.10
2023-07-30T02:14:53.449Z,23.20
2023-07-30T02:17:20.175Z,23.20
2023-07-30T02:19:46.867Z,23.20
2023-07-30T02:22:13.579Z,24.30
2023-07-30T02:24:40.330Z,23.10
2023-07-30T02:27:07.202Z,23.10
2023-07-30T02:29:33.887Z,23.10
2023-07-30T02:32:00.974Z,23.10
2023-07-30T02:34:28.003Z,23.10
2023-07-30T02:36:54.730Z,23.10
2023-07-30T02:39:21.817Z,23.10
2023-07-30T02:41:48.709Z,23.10
2023-07-30T02:44:15.429Z,23.20
2023-07-30T02:46:42.148Z,24.10
2023-07-30T02:49:09.742Z,23.10
2023-07-30T02:51:37.043Z,23.00
2023-07-30T02:54:08.317Z,23.90
2023-07-30T02:56:35.085Z,24.00
2023-07-30T02:59:02.584Z,22.90
2023-07-30T03:01:29.370Z,23.00
2023-07-30T03:03:56.131Z,22.90
2023-07-30T03:06:22.927Z,22.90
2023-07-30T03:08:49.678Z,23.50
2023-07-30T03:11:16.433Z,24.00
2023-07-30T03:13:43.147Z,22.90
2023-07-30T03:16:09.897Z,23.60
2023-07-30T03:18:36.647Z,22.80
2023-07-30T03:21:04.522Z,22.80
2023-07-30T03:23:31.243Z,22.80
2023-07-30T03:25:58.536Z,25.20
2023-07-30T03:28:25.303Z,23.60
2023-07-30T03:30:52.102Z,22.80
2023-07-30T03:33:18.866Z,23.60
2023-07-30T03:35:45.596Z,22.80
2023-07-30T03:38:12.276Z,22.70
2023-07-30T03:40:39.025Z,22.60
2023-07-30T03:43:05.774Z,22.70
2023-07-30T03:45:32.765Z,23.80
2023-07-30T03:47:59.701Z,22.60
2023-07-30T03:50:26.427Z,22.60
2023-07-30T03:52:53.182Z,23.30
2023-07-30T03:55:20.000Z,22.60
2023-07-30T03:57:46.807Z,22.50
2023-07-30T04:00:13.758Z,22.50
2023-07-30T04:02:40.551Z,22.50
2023-07-30T04:05:08.336Z,22.60
2023-07-30T04:07:35.095Z,22.50
2023-07-30T04:10:01.919Z,22.50
2023-07-30T04:12:28.621Z,22.50
2023-07-30T04:14:55.380Z,22.60
2023-07-30T04:17:22.105Z,24.30
2023-07-30T04:19:49.044Z,22.70
2023-07-30T04:22:16.074Z,22.40
2023-07-30T04:24:42.865Z,22.60
2023-07-30T04:27:09.630Z,22.40
2023-07-30T04:29:36.455Z,22.40
2023-07-30T04:32:03.347Z,23.40
2023-07-30T04:34:30.054Z,22.40
2023-07-30T04:36:56.831Z,21.90
2023-07-30T04:39:23.580Z,22.40
2023-07-30T04:41:50.265Z,23.10
2023-07-30T04:44:17.028Z,22.30
2023-07-30T04:46:43.857Z,23.00
2023-07-30T04:49:10.768Z,20.50
2023-07-30T04:51:37.781Z,22.30
2023-07-30T04:54:04.751Z,22.30
2023-07-30T04:56:31.505Z,22.40
2023-07-30T04:58:58.251Z,22.30
2023-07-30T05:01:28.308Z,22.30
2023-07-30T05:03:55.276Z,22.20
2023-07-30T05:06:23.656Z,22.20
2023-07-30T05:08:50.644Z,23.20
2023-07-30T05:11:19.357Z,22.20
2023-07-30T05:13:46.220Z,22.20
2023-07-30T05:16:12.987Z,22.20
2023-07-30T05:18:39.718Z,21.90
2023-07-30T05:21:06.569Z,22.10
2023-07-30T05:23:33.326Z,23.70
2023-07-30T05:26:00.052Z,23.90
2023-07-30T05:28:27.296Z,22.10
2023-07-30T05:30:54.089Z,22.10
2023-07-30T05:33:20.779Z,21.20
2023-07-30T05:35:49.093Z,23.70
2023-07-30T05:38:15.980Z,22.10
2023-07-30T05:40:43.049Z,22.10
2023-07-30T05:43:09.962Z,22.60
2023-07-30T05:45:36.707Z,22.10
2023-07-30T05:48:03.624Z,22.10
2023-07-30T05:50:30.570Z,22.10
2023-07-30T05:52:57.262Z,22.40
2023-07-30T05:55:24.996Z,22.70
2023-07-30T05:57:51.715Z,22.10
2023-07-30T06:00:18.483Z,22.10
2023-07-30T06:02:45.273Z,22.10
2023-07-30T06:05:12.179Z,22.10
2023-07-30T06:07:38.972Z,22.10
2023-07-30T06:10:06.227Z,22.00
2023-07-30T06:12:32.929Z,22.00
2023-07-30T06:15:02.723Z,22.00
2023-07-30T06:17:31.716Z,22.00
2023-07-30T06:19:59.826Z,22.00
2023-07-30T06:22:26.549Z,22.10
2023-07-30T06:24:53.313Z,22.00
2023-07-30T06:27:20.514Z,22.10
2023-07-30T06:29:47.217Z,22.00
2023-07-30T06:32:13.947Z,22.10
2023-07-30T06:34:40.754Z,22.10
2023-07-30T06:37:07.487Z,22.00
2023-07-30T06:39:34.167Z,22.00
2023-07-30T06:42:00.847Z,22.10
2023-07-30T06:44:27.585Z,22.10
2023-07-30T06:46:54.296Z,22.10
2023-07-30T06:49:21.068Z,22.20
2023-07-30T06:51:47.942Z,22.10
2023-07-30T06:54:14.798Z,22.60
2023-07-30T06:56:41.534Z,22.00
2023-07-30T06:59:08.279Z,22.10
2023-07-30T07:01:35.184Z,22.10
2023-07-30T07:04:01.936Z,22.10
2023-07-30T07:06:28.652Z,22.10
2023-07-30T07:08:55.408Z,22.40
2023-07-30T07:11:22.129Z,22.50
2023-07-30T07:13:48.875Z,22.10
2023-07-30T07:16:15.709Z,23.10
2023-07-30T07:18:42.786Z,23.20
2023-07-30T07:21:09.514Z,22.20
2023-07-30T07:23:36.246Z,22.20
2023-07-30T07:26:03.115Z,22.50
2023-07-30T07:28:29.853Z,22.30
2023-07-30T07:30:56.966Z,22.30
2023-07-30T07:33:23.773Z,23.40
2023-07-30T07:35:50.827Z,22.30
2023-07-30T07:38:18.108Z,22.30
2023-07-30T07:40:45.141Z,24.20
2023-07-30T07:43:12.140Z,22.40
2023-07-30T07:45:38.925Z,22.30
2023-07-30T07:48:05.851Z,22.90
2023-07-30T07:50:32.717Z,22.30
2023-07-30T07:52:59.446Z,22.60
2023-07-30T07:55:26.189Z,23.00
2023-07-30T07:57:52.875Z,22.40
2023-07-30T08:00:20.571Z,22.70
2023-07-30T08:02:50.420Z,22.40
2023-07-30T08:05:18.287Z,24.00
2023-07-30T08:07:47.302Z,23.20
2023-07-30T08:10:14.056Z,22.90
2023-07-30T08:12:40.801Z,22.40
2023-07-30T08:15:07.942Z,22.40
2023-07-30T08:17:34.747Z,22.40
2023-07-30T08:20:01.660Z,22.40
2023-07-30T08:22:28.391Z,23.30
2023-07-30T08:24:55.165Z,22.50
2023-07-30T08:27:21.921Z,22.80
2023-07-30T08:29:48.678Z,22.50
2023-07-30T08:32:15.482Z,22.50
2023-07-30T08:34:42.357Z,22.50
2023-07-30T08:37:09.265Z,23.30
2023-07-30T08:39:36.058Z,22.50
2023-07-30T08:42:03.605Z,22.50
2023-07-30T08:44:30.526Z,22.50
2023-07-30T08:46:57.299Z,22.30
2023-07-30T08:49:24.098Z,22.60
2023-07-30T08:51:54.488Z,22.60
2023-07-30T08:54:21.903Z,22.60
2023-07-30T08:56:48.920Z,22.60
2023-07-30T08:59:16.384Z,22.60
2023-07-30T09:01:45.208Z,23.60
2023-07-30T09:04:11.997Z,22.70
2023-07-30T09:06:39.772Z,22.80
2023-07-30T09:09:06.627Z,22.80
2023-07-30T09:11:33.423Z,22.80
2023-07-30T09:14:04.224Z,23.70
2023-07-30T09:16:31.130Z,23.60
2023-07-30T09:18:57.941Z,22.70
2023-07-30T09:21:35.128Z,22.80
2023-07-30T09:24:07.001Z,22.80
2023-07-30T09:26:44.685Z,22.90
2023-07-30T09:29:11.842Z,22.90
2023-07-30T09:31:54.368Z,22.90
2023-07-30T09:34:23.010Z,22.90
2023-07-30T09:36:52.955Z,22.90
2023-07-30T09:39:27.381Z,23.00
2023-07-30T09:42:00.391Z,23.00
2023-07-30T09:44:27.629Z,23.00
2023-07-30T09:46:54.512Z,23.10
2023-07-30T09:49:21.623Z,23.10
2023-07-30T09:51:49.686Z,23.10
2023-07-30T09:54:16.714Z,23.90
2023-07-30T09:56:43.852Z,23.20
2023-07-30T09:59:11.100Z,23.20
2023-07-30T10:01:44.945Z,23.60
2023-07-30T10:04:12.645Z,23.20
2023-07-30T10:06:47.312Z,23.80
2023-07-30T10:09:15.623Z,23.20
2023-07-30T10:11:43.261Z,23.30
2023-07-30T10:14:10.206Z,23.30
2023-07-30T10:16:37.068Z,23.50
2023-07-30T10:19:03.908Z,23.40
2023-07-30T10:21:34.032Z,23.50
2023-07-30T10:24:05.496Z,23.50
2023-07-30T10:26:34.741Z,23.60
2023-07-30T10:29:20.531Z,23.60
2023-07-30T10:31:57.287Z,23.60
2023-07-30T10:34:28.618Z,23.70
2023-07-30T10:37:01.079Z,23.70
2023-07-30T10:39:29.036Z,23.70
2023-07-30T10:42:01.881Z,23.80
2023-07-30T10:44:32.588Z,23.90
2023-07-30T10:47:00.330Z,24.00
2023-07-30T10:49:27.772Z,23.90
2023-07-30T10:51:58.665Z,24.00
2023-07-30T10:54:26.386Z,24.70
2023-07-30T10:56:53.141Z,24.10
2023-07-30T10:59:22.532Z,25.50
2023-07-30T11:01:52.228Z,24.30
2023-07-30T11:04:20.479Z,24.40
2023-07-30T11:06:54.189Z,24.40
2023-07-30T11:09:24.168Z,24.60
2023-07-30T11:11:57.845Z,23.10
2023-07-30T11:14:29.139Z,24.60
2023-07-30T11:17:03.353Z,24.70
2023-07-30T11:19:30.965Z,24.70
2023-07-30T11:21:58.716Z,25.40
2023-07-30T11:24:38.686Z,24.90
2023-07-30T11:27:10.047Z,24.90
2023-07-30T11:29:36.856Z,24.90
2023-07-30T11:32:04.465Z,25.00
2023-07-30T11:34:33.616Z,25.00
2023-07-30T11:37:02.004Z,25.10
2023-07-30T11:39:29.753Z,25.10
2023-07-30T11:41:56.641Z,25.10
2023-07-30T11:44:53.036Z,25.10
2023-07-30T11:47:23.749Z,25.70
2023-07-30T11:49:59.938Z,26.40
2023-07-30T11:52:26.844Z,25.20
2023-07-30T11:55:04.612Z,25.40
2023-07-30T11:57:40.273Z,25.10
2023-07-30T12:00:09.757Z,25.30
2023-07-30T12:02:38.673Z,25.40
2023-07-30T12:05:12.387Z,25.40
2023-07-30T12:07:43.502Z,25.40
2023-07-30T12:10:14.332Z,25.40
2023-07-30T12:12:47.878Z,25.50
2023-07-30T12:15:20.592Z,25.60
2023-07-30T12:17:48.018Z,25.60
2023-07-30T12:20:14.923Z,25.70
2023-07-30T12:22:43.833Z,26.30
2023-07-30T12:25:11.663Z,25.80
2023-07-30T12:27:38.534Z,27.30
2023-07-30T12:30:08.658Z,25.90
2023-07-30T12:32:38.054Z,26.00
2023-07-30T12:35:05.893Z,26.50
2023-07-30T12:37:33.953Z,26.10
2023-07-30T12:40:02.327Z,24.80
2023-07-30T12:42:36.689Z,28.40
2023-07-30T12:45:03.750Z,26.30
2023-07-30T12:47:30.601Z,26.30
2023-07-30T12:49:57.771Z,25.90
2023-07-30T12:52:24.569Z,26.30
2023-07-30T12:54:51.669Z,26.60
2023-07-30T12:57:18.551Z,26.70
2023-07-30T12:59:45.357Z,26.70
2023-07-30T13:02:12.152Z,26.70
2023-07-30T13:04:42.054Z,26.80
2023-07-30T13:07:08.881Z,27.40
2023-07-30T13:09:35.750Z,26.90
2023-07-30T13:12:02.573Z,27.40
2023-07-30T13:14:29.341Z,27.00
2023-07-30T13:16:57.727Z,27.10
2023-07-30T13:19:24.449Z,27.20
2023-07-30T13:21:51.152Z,27.30
2023-07-30T13:24:18.044Z,27.40
2023-07-30T13:26:45.050Z,27.40
2023-07-30T13:29:11.966Z,28.10
2023-07-30T13:31:39.059Z,27.50
2023-07-30T13:34:06.085Z,27.90
2023-07-30T13:36:32.903Z,27.70
2023-07-30T13:38:59.723Z,27.60
2023-07-30T13:41:26.659Z,27.70
2023-07-30T13:43:53.483Z,26.00
2023-07-30T13:46:20.289Z,27.80
2023-07-30T13:48:47.176Z,27.80
2023-07-30T13:51:17.127Z,27.90
2023-07-30T13:53:43.962Z,28.00
2023-07-30T13:56:10.792Z,28.00
2023-07-30T13:58:40.613Z,27.90
2023-07-30T14:01:10.797Z,28.00
2023-07-30T14:03:37.602Z,27.90
2023-07-30T14:06:04.526Z,27.90
2023-07-30T14:08:31.503Z,27.90
2023-07-30T14:11:00.028Z,27.70
2023-07-30T14:13:29.599Z,28.00
2023-07-30T14:15:56.840Z,25.80
2023-07-30T14:18:25.381Z,28.00
2023-07-30T14:20:52.305Z,28.00
2023-07-30T14:23:19.842Z,28.00
2023-07-30T14:25:46.579Z,28.10
2023-07-30T14:28:15.748Z,28.00
2023-07-30T14:30:45.386Z,28.10
2023-07-30T14:33:12.669Z,28.10
2023-07-30T14:35:40.121Z,28.10
2023-07-30T14:38:07.230Z,28.10
2023-07-30T14:40:34.363Z,28.00
2023-07-30T14:43:01.185Z,28.10
2023-07-30T14:45:27.992Z,28.10
2023-07-30T14:47:54.803Z,28.10
2023-07-30T14:50:21.686Z,28.10
2023-07-30T14:52:48.431Z,28.10
2023-07-30T14:55:16.036Z,28.10
2023-07-30T14:57:43.021Z,28.10
2023-07-30T15:00:11.053Z,28.20
2023-07-30T15:02:37.923Z,28.20
2023-07-30T15:05:05.098Z,28.20
2023-07-30T15:07:31.835Z,28.20
2023-07-30T15:09:58.647Z,28.70
2023-07-30T15:12:25.429Z,28.20
2023-07-30T15:14:54.676Z,28.20
2023-07-30T15:17:21.536Z,27.90
2023-07-30T15:19:49.192Z,28.20
2023-07-30T15:22:16.004Z,28.20
2023-07-30T15:24:42.742Z,28.20
2023-07-30T15:27:09.608Z,28.20
2023-07-30T15:29:36.561Z,28.30
2023-07-30T15:32:04.115Z,28.20
2023-07-30T15:34:30.960Z,28.20
2023-07-30T15:36:57.785Z,28.30
2023-07-30T15:39:24.517Z,28.30
2023-07-30T15:41:54.603Z,28.30
2023-07-30T15:44:21.494Z,28.30
2023-07-30T15:46:48.372Z,28.40
2023-07-30T15:49:15.348Z,28.30
2023-07-30T15:51:42.073Z,28.30
2023-07-30T15:54:09.537Z,28.60
2023-07-30T15:56:37.063Z,28.40
2023-07-30T15:59:04.175Z,28.30
2023-07-30T16:01:31.033Z,28.30
2023-07-30T16:03:57.888Z,28.40
2023-07-30T16:06:27.538Z,28.40
2023-07-30T16:08:55.307Z,28.40
2023-07-30T16:11:22.151Z,28.40
2023-07-30T16:13:49.280Z,28.40
2023-07-30T16:16:20.456Z,28.30
2023-07-30T16:18:51.130Z,28.30
2023-07-30T16:21:18.422Z,28.20
2023-07-30T16:23:45.364Z,28.20
2023-07-30T16:26:13.440Z,28.20
2023-07-30T16:28:45.281Z,28.10
2023-07-30T16:31:12.200Z,28.10
2023-07-30T16:33:39.024Z,28.00
2023-07-30T16:36:08.026Z,28.00
2023-07-30T16:38:36.680Z,27.90
2023-07-30T16:41:05.453Z,27.90
2023-07-30T16:43:32.304Z,28.30
2023-07-30T16:46:04.360Z,27.70
2023-07-30T16:48:31.673Z,27.70
2023-07-30T16:50:58.763Z,27.70
2023-07-30T16:53:25.717Z,27.60
2023-07-30T16:55:52.641Z,27.60
2023-07-30T16:58:19.419Z,27.50
2023-07-30T17:00:46.469Z,27.50
2023-07-30T17:03:13.668Z,27.30
2023-07-30T17:05:40.599Z,27.40
2023-07-30T17:08:08.857Z,27.20
2023-07-30T17:10:38.789Z,27.30
2023-07-30T17:13:05.686Z,27.30
2023-07-30T17:15:32.451Z,27.20
2023-07-30T17:17:59.199Z,27.10
2023-07-30T17:20:26.052Z,27.00
2023-07-30T17:22:53.378Z,27.00
2023-07-30T17:25:20.396Z,27.10
2023-07-30T17:27:47.177Z,27.00
2023-07-30T17:30:13.997Z,26.90
2023-07-30T17:32:41.035Z,26.90
2023-07-30T17:35:10.141Z,26.80
2023-07-30T17:37:39.398Z,26.80
2023-07-30T17:40:10.790Z,26.70
2023-07-30T17:42:41.071Z,26.60
2023-07-30T17:45:09.187Z,26.50
2023-07-30T17:47:36.356Z,26.50
2023-07-30T17:50:03.329Z,26.70
2023-07-30T17:52:32.361Z,26.40
2023-07-30T17:54:59.163Z,26.40
2023-07-30T17:57:25.944Z,26.40
2023-07-30T17:59:52.655Z,26.60
2023-07-30T18:02:19.935Z,26.30
2023-07-30T18:04:46.733Z,26.20
2023-07-30T18:07:13.632Z,26.20
2023-07-30T18:09:46.580Z,26.10
2023-07-30T18:12:13.703Z,26.10
2023-07-30T18:14:40.534Z,26.10
2023-07-30T18:17:07.675Z,26.00
2023-07-30T18:19:34.465Z,25.90
2023-07-30T18:22:01.508Z,25.90
2023-07-30T18:24:28.468Z,25.90
2023-07-30T18:26:55.237Z,25.90
2023-07-30T18:29:22.212Z,25.80
2023-07-30T18:31:49.339Z,25.70
2023-07-30T18:34:16.598Z,25.70
2023-07-30T18:36:43.548Z,25.70
2023-07-30T18:39:10.947Z,25.60
2023-07-30T18:41:38.264Z,25.70
2023-07-30T18:44:05.800Z,25.60
2023-07-30T18:46:35.730Z,25.50
2023-07-30T18:49:03.076Z,25.60
2023-07-30T18:51:29.956Z,25.50
2023-07-30T18:53:56.827Z,25.50
2023-07-30T18:56:23.749Z,25.40
2023-07-30T18:58:52.612Z,25.40
2023-07-30T19:01:21.485Z,25.40
2023-07-30T19:03:49.093Z,25.40
2023-07-30T19:06:16.026Z,25.30
2023-07-30T19:08:42.770Z,25.30
2023-07-30T19:11:09.649Z,25.20
2023-07-30T19:13:36.379Z,25.20
2023-07-30T19:16:03.155Z,25.10
2023-07-30T19:18:29.880Z,25.10
2023-07-30T19:20:56.640Z,25.10
2023-07-30T19:23:23.647Z,25.60
2023-07-30T19:25:51.266Z,25.00
2023-07-30T19:28:20.883Z,25.10
2023-07-30T19:30:47.859Z,24.90
2023-07-30T19:33:16.876Z,24.80
2023-07-30T19:35:50.751Z,24.80
2023-07-30T19:38:18.551Z,24.80
2023-07-30T19:40:51.607Z,24.70
2023-07-30T19:43:21.497Z,25.00
2023-07-30T19:45:48.231Z,24.70
2023-07-30T19:48:16.694Z,24.60
2023-07-30T19:50:44.606Z,24.60
2023-07-30T19:53:11.685Z,25.60
2023-07-30T19:55:40.455Z,24.60
2023-07-30T19:58:27.174Z,24.40
2023-07-30T20:00:54.566Z,24.50
2023-07-30T20:03:21.524Z,24.40
2023-07-30T20:05:48.345Z,24.40
2023-07-30T20:08:15.097Z,24.20
2023-07-30T20:10:41.780Z,24.30
2023-07-30T20:13:08.857Z,24.20
2023-07-30T20:15:36.958Z,24.20
2023-07-30T20:18:05.070Z,24.10
2023-07-30T20:20:32.549Z,24.10
2023-07-30T20:22:59.462Z,24.10
2023-07-30T20:25:26.305Z,24.30
2023-07-30T20:27:53.242Z,23.90
2023-07-30T20:30:21.539Z,24.60
2023-07-30T20:32:48.324Z,23.90
2023-07-30T20:35:15.210Z,23.90
2023-07-30T20:37:41.981Z,23.80
2023-07-30T20:40:09.348Z,23.70
2023-07-30T20:42:36.132Z,23.70
2023-07-30T20:45:02.928Z,24.80
2023-07-30T20:47:29.738Z,23.40
2023-07-30T20:49:56.560Z,24.70
2023-07-30T20:52:24.490Z,23.60
2023-07-30T20:54:51.239Z,23.50
2023-07-30T20:57:18.216Z,23.40
2023-07-30T20:59:45.055Z,23.40
2023-07-30T21:02:11.799Z,23.40
2023-07-30T21:04:38.779Z,23.40
2023-07-30T21:07:05.757Z,23.30
2023-07-30T21:09:32.473Z,23.30
2023-07-30T21:11:59.393Z,23.20
2023-07-30T21:14:26.134Z,23.20
2023-07-30T21:16:55.805Z,23.20
2023-07-30T21:19:22.964Z,23.10
2023-07-30T21:21:49.697Z,23.10
2023-07-30T21:24:16.416Z,23.80
2023-07-30T21:26:43.253Z,23.00
2023-07-30T21:29:10.388Z,23.20
2023-07-30T21:31:37.349Z,23.00
2023-07-30T21:34:04.144Z,24.20
2023-07-30T21:36:30.885Z,22.90
2023-07-30T21:38:57.626Z,22.80
2023-07-30T21:41:24.289Z,23.40
2023-07-30T21:43:50.971Z,24.10
2023-07-30T21:46:17.631Z,22.70
2023-07-30T21:48:44.500Z,22.70
2023-07-30T21:51:11.392Z,22.70
2023-07-30T21:53:38.128Z,22.90
2023-07-30T21:56:05.045Z,22.50
2023-07-30T21:58:31.980Z,23.70
2023-07-30T22:00:59.581Z,22.50
2023-07-30T22:03:26.977Z,22.50
2023-07-30T22:05:53.836Z,22.50
2023-07-30T22:08:21.332Z,22.90
2023-07-30T22:10:48.545Z,22.40
2023-07-30T22:13:18.072Z,22.30
2023-07-30T22:15:45.954Z,22.30
2023-07-30T22:18:13.570Z,23.40
2023-07-30T22:20:40.899Z,22.30
2023-07-30T22:23:07.790Z,22.20
2023-07-30T22:25:34.521Z,24.30
2023-07-30T22:28:09.275Z,23.40
2023-07-30T22:30:40.606Z,22.10
2023-07-30T22:33:07.444Z,22.00
2023-07-30T22:35:34.181Z,23.10
2023-07-30T22:38:01.071Z,22.10
2023-07-30T22:40:28.490Z,22.00
2023-07-30T22:42:55.337Z,22.00
2023-07-30T22:45:22.218Z,21.90
2023-07-30T22:47:49.382Z,21.90
2023-07-30T22:50:16.204Z,21.90
2023-07-30T22:52:42.953Z,21.90
2023-07-30T22:55:09.841Z,21.80
2023-07-30T22:57:36.786Z,21.80
2023-07-30T23:00:05.968Z,21.80
2023-07-30T23:02:33.207Z,21.60
2023-07-30T23:05:01.483Z,21.70
2023-07-30T23:07:28.214Z,21.70
2023-07-30T23:09:55.004Z,21.50
2023-07-30T23:12:21.744Z,21.60
2023-07-30T23:14:48.476Z,21.80
2023-07-30T23:17:15.139Z,21.60
2023-07-30T23:19:41.877Z,21.50
2023-07-30T23:22:08.614Z,21.60
2023-07-30T23:24:35.404Z,21.50
2023-07-30T23:27:02.174Z,21.50
2023-07-30T23:29:28.831Z,21.50
2023-07-30T23:31:55.691Z,21.50
2023-07-30T23:34:22.587Z,21.50
2023-07-30T23:36:49.423Z,21.50
2023-07-30T23:39:16.188Z,21.40
2023-07-30T23:41:43.055Z,21.40
2023-07-30T23:44:09.827Z,22.60
2023-07-30T23:46:36.727Z,21.50
2023-07-30T23:49:03.775Z,22.30
2023-07-30T23:51:31.756Z,22.60
2023-07-30T23:53:59.383Z,21.80
2023-07-30T23:56:26.637Z,21.30
2023-07-30T23:58:53.323Z,21.40
